Flight Track Log - Related Links

Times and Time Zones

All times are in EDT time to prevent confusion due to time zone crossing. See the MJI22 flight status page for this flight to view local times or setup timezone preferences in your user account.

Time Position Orientation Groundspeed Altitude Reporting Facility
EDT Latitude Longitude Course Direction KTS MPH feet Rate Location/Type
Wed 04:49:00 PM 30.2081 -85.7030 104° East  Level FlightAware Approximate
Wed 04:50:00 PM 30.1861 -85.5922 102° East  Level FlightAware Approximate
Wed 04:50:59 PM 30.2153 -85.6736 101° East 410 472 11,400  Level Jacksonville Center
Wed 04:51:00 PM 30.1653 -85.4812 102° East  Level FlightAware Approximate
Wed 04:51:59 PM 30.1906 -85.5672 105° East 417 480 14,000  Level Jacksonville Center
Wed 04:52:00 PM 30.1427 -85.3708 106° East  Level FlightAware Approximate
Wed 04:52:59 PM 30.1658 -85.4464 103° East 396 456 17,500  Level Jacksonville Center
Wed 04:53:00 PM 30.1154 -85.2617 106° East  Level FlightAware Approximate
Wed 04:53:59 PM 30.1156 -85.3394 119° Southeast 385 443 20,100  Level Jacksonville Center
Wed 04:54:00 PM 30.0904 -85.1520 103° East  Level FlightAware Approximate
Wed 04:55:00 PM 30.0683 -85.0414 103° East  Level FlightAware Approximate
Wed 04:55:00 PM 30.0403 -85.2439 132° Southeast 384 442 22,000  Level Jacksonville Center
Wed 04:55:59 PM 29.9606 -85.1533 135° Southeast 390 449 24,700 2,319 Climbing Jacksonville Center
Wed 04:56:00 PM 30.0468 -84.9307 101° East  Level FlightAware Approximate
Wed 04:56:59 PM 29.8847 -85.0606 133° Southeast 397 457 26,600  Level Jacksonville Center
Wed 04:57:59 PM 29.8219 -84.9467 122° Southeast 409 471 28,000 1,850 Climbing Jacksonville Center
Wed 04:58:59 PM 29.7697 -84.8233 116° Southeast 420 483 30,300 1,600 Climbing Jacksonville Center
Wed 04:59:59 PM 29.7550 -84.6892 97° East 409 471 31,200 650 Climbing Jacksonville Center
Wed 05:00:59 PM 29.7444 -84.5456 95° East 428 493 31,600 843 Climbing Jacksonville Center
Wed 05:02:00 PM 29.7275 -84.3825 97° East 457 526 32,900 850 Climbing Jacksonville Center
Wed 05:02:59 PM 29.7103 -84.2317 97° East 464 534 33,300 756 Climbing Jacksonville Center
Wed 05:03:59 PM 29.6931 -84.0808 97° East 471 542 34,400 850 Climbing Jacksonville Center
Wed 05:04:59 PM 29.6756 -83.9300 98° East 471 542 35,000 300 Climbing Jacksonville Center
Wed 05:05:59 PM 29.6539 -83.7769 99° East 476 548 35,000 -33 Level Jacksonville Center
Wed 05:07:00 PM 29.5485 -83.7503 168° South  Level FlightAware Approximate
Wed 05:07:59 PM 29.4756 -83.5581 168° South 451 519 34,900  Level Jacksonville Center
Wed 05:08:59 PM 29.3486 -83.5167 164° South 451 519 34,900  Level Jacksonville Center
Wed 05:09:59 PM 29.2172 -83.4756 165° South 459 528 34,900  Level Jacksonville Center
Wed 05:10:59 PM 29.0881 -83.4367 165° South 475 547 34,900 -400 Level Jacksonville Center
Wed 05:11:59 PM 28.9628 -83.3956 164° South 475 547 34,100 -900 Descending Jacksonville Center
Wed 05:12:59 PM 28.8356 -83.3572 165° South 475 547 33,100 -550 Descending Jacksonville Center
Wed 05:13:59 PM 28.7064 -83.3164 165° South 475 547 33,000 -32 Descending Jacksonville Center
Wed 05:16:05 PM 28.4486 -83.2394 165° South 477 549 33,000  Level Miami Center
Wed 05:17:05 PM 28.3211 -83.1992 164° South 482 555 33,000  Level Miami Center
Wed 05:18:05 PM 28.1917 -83.1592 165° South 482 555 33,000  Level Miami Center
Wed 05:19:05 PM 28.0619 -83.1214 166° South 487 560 33,000  Level Miami Center
Wed 05:20:05 PM 27.9389 -83.0722 161° South 487 560 33,000  Level Miami Center
Wed 05:21:05 PM 27.8389 -82.9706 138° Southeast 476 548 33,000  Level Miami Center
Wed 05:22:05 PM 27.7250 -82.8519 137° Southeast 495 570 33,000 -50 Level Miami Center
Wed 05:23:05 PM 27.6269 -82.7483 137° Southeast 501 577 32,900 -550 Descending Miami Center
Wed 05:24:05 PM 27.5353 -82.6453 135° Southeast 491 565 31,900 -1,450 Descending Miami Center
Wed 05:25:05 PM 27.4472 -82.5519 137° Southeast 480 552 30,000 -1,900 Descending Miami Center
Wed 05:26:05 PM 27.3492 -82.4444 136° Southeast 490 564 28,100 -1,850 Descending Miami Center
Wed 05:27:05 PM 27.2667 -82.3072 124° Southeast 490 564 26,300 -1,450 Descending Miami Center
Wed 05:28:05 PM 27.1978 -82.1944 124° Southeast 456 525 25,200 -1,050 Descending Miami Center
Wed 05:29:05 PM 27.1131 -82.1136 140° Southeast 407 468 24,200 -600 Descending Miami Center
Wed 05:30:05 PM 27.0364 -82.0425 140° Southeast 393 452 24,000 -700 Descending Miami Center
Wed 05:31:05 PM 26.9475 -81.9594 140° Southeast 388 447 22,800 -1,750 Descending Miami Center
Wed 05:32:05 PM 26.8483 -81.8711 142° Southeast 415 478 20,500 -1,750 Descending Miami Center
Wed 05:33:05 PM 26.7636 -81.7861 138° Southeast 426 490 19,300 -1,250 Descending Miami Center
Wed 05:34:05 PM 26.6847 -81.7108 140° Southeast 404 465 18,000 -650 Descending Miami Center
Wed 05:35:05 PM 26.6117 -81.6475 142° Southeast 368 423 18,000 -50 Level Miami Center
Wed 05:36:05 PM 26.5428 -81.5797 139° Southeast 330 380 17,900 -600 Descending Miami Center
Wed 05:37:05 PM 26.4869 -81.5031 129° Southeast 335 386 16,800 -1,350 Descending Miami Center
Wed 05:38:05 PM 26.4225 -81.4242 132° Southeast 341 392 15,200 -1,600 Descending Miami Center
Wed 05:39:05 PM 26.3600 -81.3522 134° Southeast 335 386 13,600 -1,650 Descending Miami Center
Wed 05:40:05 PM 26.3083 -81.2714 125° Southeast 324 373 11,900 -1,632 Descending Miami Center
Wed 05:40:59 PM 26.2522 -81.1931 129° Southeast 316 364 10,500 -1,252 Descending Miami Center
Wed 05:42:00 PM 26.2150 -81.1083 116° Southeast 297 342 9,500 -1,033 Descending Miami Center
Wed 05:43:01 PM 26.1603 -81.0531 138° Southeast 293 337 8,400 -1,180 Descending Miami Center
Wed 05:44:02 PM 26.0861 -81.0136 154° Southeast 285 328 7,100 -1,279 Descending Miami Center
Wed 05:45:03 PM 26.0183 -80.9694 150° Southeast 279 321 5,800 -1,171 Descending Miami Center
Wed 05:46:05 PM 25.9994 -80.9019 107° East 248 285 4,700 -885 Descending Miami Center
Wed 05:47:05 PM 26.0569 -80.8600 33° Northeast 168 193 4,000 -350 Descending Miami Center
Wed 05:48:05 PM 26.1167 -80.8156 34° Northeast 203 234 4,000  Level Miami Center
Wed 05:49:05 PM 26.1661 -80.7572 47° Northeast 223 257 4,000 -250 Level Miami Center
Wed 05:50:05 PM 26.2036 -80.6867 59° Northeast 250 288 3,500 -476 Descending Miami Center
Wed 05:51:11 PM 26.2103 -80.5894 86° East 263 303 3,000 -238 Descending Miami Center
Wed 05:52:11 PM 26.2186 -80.5089 83° East 265 305 3,000  Level Miami Center
Wed 05:53:19 PM 26.2231 -80.4139 87° East 270 311 3,000 -215 Level Miami Center
Wed 05:55:26 PM 26.2519 -80.2528 79° East 227 261 2,300 -426 Descending Miami Center
Wed 05:56:22 PM 26.2700 -80.1975 70° East 183 211 1,700 -780 Descending Miami Center
Wed 05:57:29 PM 26.2775 -80.1444 81° East 136 157 700 -896 Descending Miami Center
Wed 05:59:00 PM 26.2471 -80.1111 86° East  Level Estimated
Wed 06:06:00 PM 26.2471 -80.1111 86° East  Level Estimated

Login

Don't have an account? Register now (free) for customized features, flight alerts, and more!